Dogwood Terrace, Louisiana
Current Conditions -  °F | °C
As of 7:58 AM on Saturday 25 Oct 2014 (Local Time) from KPOE Reporting Station
Clear Clear  
Wind Chill: 50°   Ceiling: Unl
Heat Index: 50°   Visibility: 9mi
Dew Point: 48°   Wind: 1mph
Humidity: 95%   Direction: 130°SE
Pressure: 30.16"   Gusts: NA
Location:  30.9864°N, 93.2144°W
Report Text: KPOE 251258Z AUTO 13001KT 9SM CLR 10/09 A3016 RMK AO2 SLP215 T00990091
Loading
Personal Weather Stations






























Interactive Weather Map
Tropical Storm Tracking
New forecast layout! Learn more

10-Day Weather Forecast

Advertisements
Track Severe Weather on mobile